createdAt,value
2022-09-18T00:01:39.932Z,6.37
2022-09-18T00:04:16.598Z,7.70
2022-09-18T00:06:45.478Z,9.63
2022-09-18T00:09:15.757Z,5.93
2022-09-18T00:11:46.980Z,7.43
2022-09-18T00:14:18.925Z,6.37
2022-09-18T00:16:49.661Z,5.93
2022-09-18T00:19:20.571Z,7.03
2022-09-18T00:21:51.543Z,6.40
2022-09-18T00:24:20.450Z,8.97
2022-09-18T00:26:50.279Z,7.77
2022-09-18T00:29:18.528Z,6.83
2022-09-18T00:31:46.799Z,7.10
2022-09-18T00:34:15.667Z,7.27
2022-09-18T00:36:44.980Z,8.67
2022-09-18T00:39:13.018Z,8.93
2022-09-18T00:41:44.472Z,8.77
2022-09-18T00:44:35.348Z,8.10
2022-09-18T00:47:17.614Z,6.83
2022-09-18T00:49:51.247Z,9.07
2022-09-18T00:52:30.873Z,8.43
2022-09-18T00:55:08.148Z,12.10
2022-09-18T00:57:43.252Z,7.83
2022-09-18T01:00:12.476Z,6.38
2022-09-18T01:02:42.897Z,6.77
2022-09-18T01:05:14.051Z,6.97
2022-09-18T01:08:08.707Z,7.60
2022-09-18T01:10:53.337Z,8.77
2022-09-18T01:13:36.065Z,8.13
2022-09-18T01:16:15.724Z,7.00
2022-09-18T01:18:56.277Z,5.73
2022-09-18T01:21:33.705Z,7.90
2022-09-18T01:24:45.025Z,9.20
2022-09-18T01:27:30.248Z,6.47
2022-09-18T01:30:06.201Z,8.07
2022-09-18T01:32:43.385Z,8.90
2022-09-18T01:35:40.471Z,11.07
2022-09-18T01:40:49.469Z,5.73
2022-09-18T01:43:22.027Z,9.30
2022-09-18T01:45:58.475Z,9.43
2022-09-18T01:48:40.755Z,7.20
2022-09-18T01:51:20.226Z,7.63
2022-09-18T01:53:54.703Z,6.87
2022-09-18T01:56:30.888Z,9.27
2022-09-18T01:59:04.941Z,8.43
2022-09-18T02:01:49.335Z,6.90
2022-09-18T02:04:24.936Z,6.73
2022-09-18T02:07:08.497Z,5.87
2022-09-18T02:09:37.736Z,9.70
2022-09-18T02:12:12.159Z,9.20
2022-09-18T02:14:46.579Z,8.83
2022-09-18T02:17:41.401Z,8.20
2022-09-18T02:20:20.918Z,10.23
2022-09-18T02:22:53.065Z,8.57
2022-09-18T02:25:36.049Z,5.03
2022-09-18T02:28:08.952Z,9.93
2022-09-18T02:30:39.271Z,7.37
2022-09-18T02:33:31.740Z,6.93
2022-09-18T02:36:41.019Z,4.93
2022-09-18T02:39:30.929Z,7.43
2022-09-18T02:42:22.260Z,5.40
2022-09-18T02:45:03.985Z,5.60
2022-09-18T02:47:48.941Z,5.93
2022-09-18T02:50:32.686Z,5.57
2022-09-18T02:53:10.555Z,5.80
2022-09-18T02:55:49.249Z,6.57
2022-09-18T02:58:28.431Z,5.13
2022-09-18T03:01:02.378Z,5.83
2022-09-18T03:03:33.542Z,6.10
2022-09-18T03:06:08.327Z,9.05
2022-09-18T03:08:38.030Z,6.37
2022-09-18T03:11:06.559Z,5.97
2022-09-18T03:13:37.704Z,6.40
2022-09-18T03:16:06.340Z,10.30
2022-09-18T03:18:34.203Z,8.43
2022-09-18T03:21:02.602Z,6.03
2022-09-18T03:23:31.897Z,7.67
2022-09-18T03:26:12.382Z,7.20
2022-09-18T03:28:40.226Z,7.80
2022-09-18T03:31:10.184Z,7.17
2022-09-18T03:33:39.033Z,6.90
2022-09-18T03:36:10.903Z,7.00
2022-09-18T03:38:41.613Z,6.20
2022-09-18T03:41:09.815Z,5.77
2022-09-18T03:43:42.068Z,9.77
2022-09-18T03:46:12.213Z,7.40
2022-09-18T03:48:40.436Z,6.53
2022-09-18T03:51:08.569Z,6.33
2022-09-18T03:53:44.512Z,8.00
2022-09-18T03:56:32.595Z,9.27
2022-09-18T03:59:00.488Z,5.47
2022-09-18T04:02:01.072Z,7.33
2022-09-18T04:04:29.550Z,7.67
2022-09-18T04:07:16.071Z,7.73
2022-09-18T04:10:14.884Z,5.47
2022-09-18T04:12:45.614Z,7.33
2022-09-18T04:15:24.005Z,6.80
2022-09-18T04:17:53.820Z,6.63
2022-09-18T04:20:21.938Z,6.63
2022-09-18T04:22:50.143Z,8.00
2022-09-18T04:25:22.909Z,9.77
2022-09-18T04:27:51.997Z,9.83
2022-09-18T04:30:21.578Z,7.57
2022-09-18T04:32:51.605Z,7.97
2022-09-18T04:35:21.372Z,10.57
2022-09-18T04:37:50.448Z,10.43
2022-09-18T04:40:23.717Z,6.57
2022-09-18T04:42:52.357Z,9.47
2022-09-18T04:45:20.168Z,9.03
2022-09-18T04:47:49.188Z,8.17
2022-09-18T04:50:19.618Z,9.43
2022-09-18T04:53:05.851Z,9.97
2022-09-18T04:55:36.376Z,10.20
2022-09-18T04:58:04.423Z,7.40
2022-09-18T05:00:35.923Z,9.83
2022-09-18T05:03:04.350Z,8.47
2022-09-18T05:05:38.671Z,10.27
2022-09-18T05:08:07.978Z,7.07
2022-09-18T05:10:37.109Z,6.30
2022-09-18T05:13:06.108Z,7.03
2022-09-18T05:15:39.103Z,6.40
2022-09-18T05:18:11.480Z,7.57
2022-09-18T05:20:39.972Z,5.83
2022-09-18T05:23:09.566Z,9.30
2022-09-18T05:25:39.758Z,8.50
2022-09-18T05:28:10.865Z,10.23
2022-09-18T05:30:44.063Z,6.63
2022-09-18T05:33:13.166Z,7.67
2022-09-18T05:35:42.831Z,6.87
2022-09-18T05:38:11.802Z,5.30
2022-09-18T05:40:45.019Z,5.53
2022-09-18T05:43:13.851Z,6.13
2022-09-18T05:45:42.579Z,6.10
2022-09-18T05:48:25.268Z,6.00
2022-09-18T05:50:53.187Z,7.50
2022-09-18T05:53:22.025Z,7.13
2022-09-18T05:56:01.141Z,5.93
2022-09-18T05:58:30.783Z,7.87
2022-09-18T06:01:01.213Z,4.50
2022-09-18T06:03:41.527Z,7.00
2022-09-18T06:06:09.414Z,6.10
2022-09-18T06:08:37.667Z,5.87
2022-09-18T06:11:07.300Z,5.60
2022-09-18T06:13:35.161Z,6.47
2022-09-18T06:16:04.642Z,7.30
2022-09-18T06:18:47.417Z,10.43
2022-09-18T06:21:16.259Z,11.23
2022-09-18T06:23:49.744Z,8.07
2022-09-18T06:26:31.368Z,12.53
2022-09-18T06:28:59.296Z,7.27
2022-09-18T06:31:33.161Z,11.23
2022-09-18T06:34:11.053Z,8.87
2022-09-18T06:36:49.143Z,7.33
2022-09-18T06:39:24.206Z,6.37
2022-09-18T06:41:59.232Z,10.30
2022-09-18T06:44:55.766Z,10.37
2022-09-18T06:47:25.271Z,9.13
2022-09-18T06:49:53.811Z,11.90
2022-09-18T06:52:24.564Z,11.17
2022-09-18T06:54:57.058Z,9.87
2022-09-18T06:57:34.610Z,9.07
2022-09-18T07:00:09.520Z,14.03
2022-09-18T07:02:40.145Z,11.57
2022-09-18T07:05:47.876Z,13.03
2022-09-18T07:08:30.023Z,9.03
2022-09-18T07:11:08.257Z,10.47
2022-09-18T07:13:38.756Z,10.50
2022-09-18T07:16:09.798Z,7.53
2022-09-18T07:18:38.991Z,11.30
2022-09-18T07:21:10.516Z,8.87
2022-09-18T07:23:41.042Z,10.00
2022-09-18T07:26:10.351Z,8.17
2022-09-18T07:28:39.909Z,6.97
2022-09-18T07:31:18.356Z,7.53
2022-09-18T07:33:51.927Z,9.73
2022-09-18T07:36:21.773Z,8.80
2022-09-18T07:38:52.545Z,8.90
2022-09-18T07:41:23.756Z,7.83
2022-09-18T07:43:53.154Z,12.23
2022-09-18T07:46:21.695Z,7.87
2022-09-18T07:48:52.796Z,7.27
2022-09-18T07:51:27.333Z,7.80
2022-09-18T07:53:57.235Z,10.53
2022-09-18T07:56:42.499Z,8.93
2022-09-18T07:59:14.109Z,9.50
2022-09-18T08:01:42.580Z,7.97
2022-09-18T08:04:12.175Z,7.10
2022-09-18T08:07:04.233Z,5.87
2022-09-18T08:09:55.581Z,6.03
2022-09-18T08:12:35.952Z,8.87
2022-09-18T08:15:25.176Z,7.57
2022-09-18T08:18:13.223Z,9.47
2022-09-18T08:24:03.508Z,4.70
2022-09-18T08:26:31.473Z,7.03
2022-09-18T08:28:59.704Z,7.80
2022-09-18T08:31:29.873Z,7.13
2022-09-18T08:33:58.616Z,6.73
2022-09-18T08:36:27.213Z,8.20
2022-09-18T08:39:11.546Z,7.47
2022-09-18T08:42:28.895Z,6.27
2022-09-18T08:45:03.800Z,7.87
2022-09-18T08:47:47.005Z,9.93
2022-09-18T08:50:26.536Z,5.38
2022-09-18T08:53:05.824Z,8.10
2022-09-18T08:55:49.792Z,5.60
2022-09-18T08:58:42.992Z,4.60
2022-09-18T09:01:18.877Z,4.28
2022-09-18T09:04:17.491Z,7.47
2022-09-18T09:07:09.241Z,5.13
2022-09-18T09:10:04.245Z,7.33
2022-09-18T09:12:47.992Z,4.83
2022-09-18T09:15:33.677Z,7.67
2022-09-18T09:18:17.133Z,5.60
2022-09-18T09:20:53.427Z,9.80
2022-09-18T09:23:49.245Z,4.43
2022-09-18T09:26:42.905Z,9.93
2022-09-18T09:29:27.263Z,6.70
2022-09-18T09:32:25.705Z,5.00
2022-09-18T09:35:26.157Z,5.13
2022-09-18T09:38:32.171Z,3.90
2022-09-18T09:41:15.972Z,5.50
2022-09-18T09:43:58.469Z,5.07
2022-09-18T09:46:58.283Z,6.40
2022-09-18T09:49:31.724Z,6.00
2022-09-18T09:52:14.183Z,5.83
2022-09-18T09:54:44.715Z,7.30
2022-09-18T09:57:26.387Z,6.97
2022-09-18T10:00:12.708Z,4.13
2022-09-18T10:03:12.857Z,5.13
2022-09-18T10:05:53.944Z,3.90
2022-09-18T10:08:34.661Z,4.47
2022-09-18T10:11:11.096Z,5.10
2022-09-18T10:13:47.253Z,4.53
2022-09-18T10:16:22.483Z,4.97
2022-09-18T10:18:51.023Z,2.58
2022-09-18T10:21:24.613Z,4.13
2022-09-18T10:24:00.998Z,4.93
2022-09-18T10:26:39.725Z,2.67
2022-09-18T10:29:10.011Z,8.07
2022-09-18T10:31:52.445Z,5.70
2022-09-18T10:34:40.044Z,6.90
2022-09-18T10:37:16.562Z,6.80
2022-09-18T10:39:51.790Z,6.27
2022-09-18T10:42:27.481Z,5.68
2022-09-18T10:45:07.693Z,5.97
2022-09-18T10:47:44.543Z,3.53
2022-09-18T10:50:20.588Z,5.63
2022-09-18T10:52:54.772Z,4.70
2022-09-18T10:55:32.387Z,4.17
2022-09-18T10:58:14.926Z,4.83
2022-09-18T11:00:58.571Z,5.00
2022-09-18T11:03:42.145Z,7.07
2022-09-18T11:06:25.325Z,5.87
2022-09-18T11:09:02.918Z,4.73
2022-09-18T11:11:43.397Z,5.30
2022-09-18T11:14:27.336Z,6.53
2022-09-18T11:17:02.774Z,5.33
2022-09-18T11:19:40.048Z,5.77
2022-09-18T11:22:35.166Z,3.97
2022-09-18T11:25:26.389Z,4.20
2022-09-18T11:28:01.811Z,4.70
2022-09-18T11:30:38.613Z,3.67
2022-09-18T11:33:21.477Z,4.10
2022-09-18T11:35:57.619Z,5.40
2022-09-18T11:38:28.442Z,4.97
2022-09-18T11:41:01.510Z,13.37
2022-09-18T11:43:40.985Z,5.30
2022-09-18T11:46:28.209Z,5.30
2022-09-18T11:49:04.785Z,4.63
2022-09-18T11:51:50.300Z,4.10
2022-09-18T11:54:32.133Z,3.20
2022-09-18T11:57:12.697Z,3.67
2022-09-18T11:59:51.232Z,4.63
2022-09-18T12:02:36.632Z,4.20
2022-09-18T12:08:00.582Z,4.50
2022-09-18T12:11:01.306Z,5.05
2022-09-18T12:13:45.667Z,4.03
2022-09-18T12:16:22.811Z,7.57
2022-09-18T12:19:07.482Z,4.80
2022-09-18T12:21:45.031Z,5.20
2022-09-18T12:24:16.089Z,9.27
2022-09-18T12:27:03.503Z,7.33
2022-09-18T12:29:59.482Z,4.87
2022-09-18T12:32:56.271Z,8.50
2022-09-18T12:35:53.137Z,5.43
2022-09-18T12:38:50.435Z,5.20
2022-09-18T12:41:47.212Z,5.13
2022-09-18T12:44:59.317Z,10.27
2022-09-18T12:47:46.919Z,5.77
2022-09-18T12:50:36.801Z,5.17
2022-09-18T12:53:23.444Z,6.47
2022-09-18T12:56:13.747Z,3.43
2022-09-18T12:59:21.635Z,4.73
2022-09-18T13:01:57.813Z,4.37
2022-09-18T13:04:32.142Z,4.63
2022-09-18T13:07:11.320Z,5.53
2022-09-18T13:09:50.661Z,7.13
2022-09-18T13:12:27.304Z,5.83
2022-09-18T13:15:01.152Z,4.35
2022-09-18T13:17:37.458Z,5.63
2022-09-18T13:20:16.452Z,6.63
2022-09-18T13:22:53.210Z,3.60
2022-09-18T13:25:54.381Z,5.17
2022-09-18T13:28:38.021Z,7.50
2022-09-18T13:31:28.195Z,18.63
2022-09-18T13:34:05.510Z,5.63
2022-09-18T13:37:07.047Z,6.07
2022-09-18T13:39:55.385Z,3.40
2022-09-18T13:43:43.126Z,7.33
2022-09-18T13:46:33.737Z,5.90
2022-09-18T13:49:18.013Z,5.17
2022-09-18T13:51:46.697Z,7.43
2022-09-18T13:54:29.155Z,7.47
2022-09-18T13:57:28.335Z,4.13
2022-09-18T13:59:58.698Z,3.87
2022-09-18T14:02:37.195Z,4.73
2022-09-18T14:05:37.607Z,4.87
2022-09-18T14:08:37.168Z,2.93
2022-09-18T14:11:17.317Z,5.50
2022-09-18T14:13:52.303Z,4.00
2022-09-18T14:16:44.608Z,5.72
2022-09-18T14:19:36.922Z,5.43
2022-09-18T14:22:22.116Z,4.03
2022-09-18T14:25:00.520Z,6.20
2022-09-18T14:27:45.777Z,3.70
2022-09-18T14:30:22.225Z,6.85
2022-09-18T14:33:18.930Z,4.87
2022-09-18T14:36:00.311Z,4.83
2022-09-18T14:38:34.826Z,7.40
2022-09-18T14:41:20.919Z,4.80
2022-09-18T14:43:52.805Z,5.33
2022-09-18T14:46:24.802Z,8.23
2022-09-18T14:48:53.325Z,7.03
2022-09-18T14:51:23.699Z,12.07
2022-09-18T14:53:54.839Z,14.00
2022-09-18T14:56:29.373Z,11.17
2022-09-18T14:59:02.970Z,4.37
2022-09-18T15:01:40.585Z,6.70
2022-09-18T15:04:17.938Z,4.57
2022-09-18T15:06:49.811Z,4.47
2022-09-18T15:09:26.634Z,4.30
2022-09-18T15:12:03.162Z,4.03
2022-09-18T15:14:41.801Z,2.43
2022-09-18T15:17:23.103Z,5.80
2022-09-18T15:19:59.769Z,5.70
2022-09-18T15:22:29.780Z,3.95
2022-09-18T15:25:00.749Z,5.10
2022-09-18T15:27:30.088Z,5.50
2022-09-18T15:30:04.688Z,3.90
2022-09-18T15:32:39.492Z,3.90
2022-09-18T15:35:18.074Z,3.22
2022-09-18T15:37:53.126Z,3.63
2022-09-18T15:40:30.105Z,3.03
2022-09-18T15:43:01.927Z,3.80
2022-09-18T15:45:32.662Z,3.90
2022-09-18T15:48:34.055Z,1.77
2022-09-18T15:51:09.695Z,3.27
2022-09-18T15:56:18.137Z,3.17
2022-09-18T15:58:54.123Z,5.83
2022-09-18T16:01:29.044Z,3.63
2022-09-18T16:04:18.236Z,1.50
2022-09-18T16:06:59.510Z,4.50
2022-09-18T16:09:40.862Z,2.93
2022-09-18T16:12:39.683Z,3.23
2022-09-18T16:15:20.976Z,4.17
2022-09-18T16:17:57.469Z,3.47
2022-09-18T16:20:31.935Z,4.77
2022-09-18T16:23:25.778Z,4.30
2022-09-18T16:26:10.607Z,8.97
2022-09-18T16:28:42.965Z,3.17
2022-09-18T16:31:12.072Z,6.27
2022-09-18T16:33:51.445Z,9.03
2022-09-18T16:36:29.725Z,4.67
2022-09-18T16:39:01.445Z,2.80
2022-09-18T16:41:31.002Z,3.30
2022-09-18T16:44:00.001Z,3.20
2022-09-18T16:46:37.153Z,3.93
2022-09-18T16:49:05.196Z,4.57
2022-09-18T16:51:34.403Z,11.57
2022-09-18T16:54:02.371Z,5.70
2022-09-18T16:56:35.354Z,6.00
2022-09-18T16:59:06.986Z,12.87
2022-09-18T17:02:00.447Z,11.90
2022-09-18T17:04:28.315Z,8.10
2022-09-18T17:07:00.108Z,8.90
2022-09-18T17:09:30.783Z,5.40
2022-09-18T17:12:00.560Z,7.33
2022-09-18T17:14:28.406Z,3.40
2022-09-18T17:16:56.550Z,7.80
2022-09-18T17:19:24.481Z,6.33
2022-09-18T17:21:53.190Z,7.37
2022-09-18T17:24:26.008Z,9.97
2022-09-18T17:26:56.647Z,6.53
2022-09-18T17:29:24.555Z,4.97
2022-09-18T17:31:53.458Z,4.93
2022-09-18T17:34:22.086Z,3.87
2022-09-18T17:36:50.425Z,3.50
2022-09-18T17:39:18.662Z,5.50
2022-09-18T17:41:51.147Z,5.40
2022-09-18T17:44:20.112Z,5.97
2022-09-18T17:46:51.398Z,5.33
2022-09-18T17:49:20.382Z,7.13
2022-09-18T17:51:49.278Z,4.07
2022-09-18T17:54:18.710Z,5.23
2022-09-18T17:56:49.508Z,2.80
2022-09-18T17:59:18.820Z,4.93
2022-09-18T18:01:48.673Z,5.40
2022-09-18T18:04:16.838Z,4.60
2022-09-18T18:06:48.664Z,5.37
2022-09-18T18:09:16.820Z,4.03
2022-09-18T18:11:46.085Z,4.47
2022-09-18T18:14:16.436Z,4.53
2022-09-18T18:16:47.951Z,5.93
2022-09-18T18:19:18.953Z,2.33
2022-09-18T18:21:49.859Z,4.30
2022-09-18T18:24:19.484Z,4.07
2022-09-18T18:26:49.869Z,6.80
2022-09-18T18:29:21.430Z,3.57
2022-09-18T18:31:52.599Z,5.07
2022-09-18T18:34:22.099Z,2.20
2022-09-18T18:36:52.857Z,4.23
2022-09-18T18:39:21.359Z,3.90
2022-09-18T18:41:49.762Z,4.80
2022-09-18T18:44:21.053Z,3.57
2022-09-18T18:46:53.431Z,4.27
2022-09-18T18:49:21.693Z,3.83
2022-09-18T18:51:51.844Z,5.70
2022-09-18T18:54:22.219Z,3.50
2022-09-18T18:56:52.665Z,5.27
2022-09-18T18:59:24.262Z,4.80
2022-09-18T19:01:58.982Z,4.53
2022-09-18T19:04:36.590Z,6.50
2022-09-18T19:07:07.013Z,3.38
2022-09-18T19:09:36.943Z,6.27
2022-09-18T19:12:07.148Z,4.53
2022-09-18T19:14:38.029Z,8.57
2022-09-18T19:17:10.076Z,7.43
2022-09-18T19:19:38.987Z,4.90
2022-09-18T19:22:18.782Z,8.47
2022-09-18T19:24:47.620Z,8.63
2022-09-18T19:27:15.575Z,8.33
2022-09-18T19:29:49.042Z,7.30
2022-09-18T19:32:18.889Z,8.80
2022-09-18T19:34:54.436Z,6.37
2022-09-18T19:37:25.085Z,5.40
2022-09-18T19:39:56.388Z,15.40
2022-09-18T19:42:28.092Z,8.00
2022-09-18T19:45:06.354Z,6.93
2022-09-18T19:47:45.730Z,7.53
2022-09-18T19:50:24.603Z,4.77
2022-09-18T19:52:54.664Z,5.23
2022-09-18T19:55:23.985Z,6.47
2022-09-18T19:57:56.848Z,7.33
2022-09-18T20:00:27.197Z,5.50
2022-09-18T20:02:58.858Z,6.33
2022-09-18T20:05:28.085Z,5.93
2022-09-18T20:07:56.046Z,8.20
2022-09-18T20:10:24.368Z,10.33
2022-09-18T20:12:53.856Z,6.60
2022-09-18T20:15:23.253Z,11.17
2022-09-18T20:17:55.554Z,7.47
2022-09-18T20:20:24.501Z,8.43
2022-09-18T20:22:55.717Z,16.60
2022-09-18T20:25:25.350Z,7.03
2022-09-18T20:27:53.744Z,7.30
2022-09-18T20:30:22.925Z,9.77
2022-09-18T20:32:54.209Z,9.43
2022-09-18T20:35:22.328Z,12.20
2022-09-18T20:37:51.407Z,5.93
2022-09-18T20:40:19.389Z,6.03
2022-09-18T20:42:51.448Z,9.23
2022-09-18T20:45:19.429Z,11.43
2022-09-18T20:47:49.619Z,7.10
2022-09-18T20:50:21.155Z,11.50
2022-09-18T20:52:48.936Z,7.60
2022-09-18T20:55:17.743Z,8.80
2022-09-18T20:57:46.286Z,10.77
2022-09-18T21:00:17.281Z,7.70
2022-09-18T21:02:51.074Z,8.27
2022-09-18T21:05:21.608Z,7.37
2022-09-18T21:07:54.192Z,8.13
2022-09-18T21:10:21.953Z,11.77
2022-09-18T21:12:49.714Z,10.80
2022-09-18T21:15:17.862Z,14.77
2022-09-18T21:17:48.916Z,9.20
2022-09-18T21:20:17.239Z,8.30
2022-09-18T21:23:07.126Z,8.33
2022-09-18T21:25:35.064Z,12.23
2022-09-18T21:28:05.868Z,10.77
2022-09-18T21:30:34.857Z,13.47
2022-09-18T21:33:02.689Z,11.70
2022-09-18T21:35:30.531Z,17.33
2022-09-18T21:38:01.188Z,16.33
2022-09-18T21:40:29.157Z,12.13
2022-09-18T21:42:56.984Z,13.80
2022-09-18T21:45:25.021Z,17.83
2022-09-18T21:47:53.680Z,12.50
2022-09-18T21:50:22.292Z,12.67
2022-09-18T21:52:51.291Z,13.80
2022-09-18T21:55:20.473Z,16.43
2022-09-18T21:57:50.943Z,15.00
2022-09-18T22:00:18.962Z,18.20
2022-09-18T22:02:46.864Z,10.23
2022-09-18T22:05:15.965Z,13.90
2022-09-18T22:07:44.721Z,19.87
2022-09-18T22:10:13.457Z,14.80
2022-09-18T22:12:42.728Z,19.77
2022-09-18T22:15:11.006Z,15.97
2022-09-18T22:17:39.520Z,17.00
2022-09-18T22:20:09.103Z,14.77
2022-09-18T22:22:38.111Z,14.87
2022-09-18T22:25:07.171Z,17.20
2022-09-18T22:27:35.882Z,16.70
2022-09-18T22:30:07.129Z,19.07
2022-09-18T22:32:35.369Z,15.40
2022-09-18T22:35:03.569Z,20.60
2022-09-18T22:37:31.851Z,14.53
2022-09-18T22:40:01.390Z,18.30
2022-09-18T22:42:29.716Z,19.40
2022-09-18T22:44:57.530Z,15.47
2022-09-18T22:47:28.396Z,11.90
2022-09-18T22:49:56.192Z,19.23
2022-09-18T22:52:24.125Z,20.30
2022-09-18T22:54:54.365Z,16.03
2022-09-18T22:57:22.230Z,15.23
2022-09-18T22:59:50.114Z,18.70
2022-09-18T23:02:19.654Z,17.30
2022-09-18T23:04:50.011Z,21.53
2022-09-18T23:07:18.141Z,17.03
2022-09-18T23:09:47.476Z,13.83
2022-09-18T23:12:15.441Z,20.70
2022-09-18T23:14:44.542Z,14.17
2022-09-18T23:17:12.399Z,15.57
2022-09-18T23:19:41.592Z,13.87
2022-09-18T23:22:12.995Z,22.60
2022-09-18T23:24:41.043Z,14.60
2022-09-18T23:27:08.853Z,20.07
2022-09-18T23:29:38.419Z,19.17
2022-09-18T23:32:07.148Z,15.23
2022-09-18T23:34:34.996Z,16.47
2022-09-18T23:37:02.853Z,18.17
2022-09-18T23:39:34.623Z,16.50
2022-09-18T23:42:04.454Z,14.40
2022-09-18T23:44:33.092Z,17.57
2022-09-18T23:47:01.539Z,17.47
2022-09-18T23:49:31.317Z,11.70
2022-09-18T23:51:59.807Z,16.40
2022-09-18T23:54:30.803Z,15.40
2022-09-18T23:56:59.917Z,11.90
2022-09-18T23:59:28.328Z,17.90
